sensor_id;sensor_type;location;lat;lon;timestamp;pressure;altitude;pressure_sealevel;temperature;humidity
57572;BME280;44459;43.522;24.470;2023-05-21T00:02:14;100193.53;;;12.61;100.00
57572;BME280;44459;43.522;24.470;2023-05-21T00:04:43;100197.94;;;12.62;100.00
57572;BME280;44459;43.522;24.470;2023-05-21T00:07:09;100199.69;;;12.57;100.00
57572;BME280;44459;43.522;24.470;2023-05-21T00:09:35;100193.56;;;12.43;100.00
57572;BME280;44459;43.522;24.470;2023-05-21T00:12:03;100190.94;;;12.41;100.00
57572;BME280;44459;43.522;24.470;2023-05-21T00:14:28;100185.63;;;12.46;100.00
57572;BME280;44459;43.522;24.470;2023-05-21T00:16:54;100177.69;;;12.43;100.00
57572;BME280;44459;43.522;24.470;2023-05-21T00:19:19;100175.91;;;12.45;100.00
57572;BME280;44459;43.522;24.470;2023-05-21T00:21:45;100183.84;;;12.43;100.00
57572;BME280;44459;43.522;24.470;2023-05-21T00:24:11;100186.50;;;12.43;100.00
57572;BME280;44459;43.522;24.470;2023-05-21T00:26:36;100177.69;;;12.37;100.00
57572;BME280;44459;43.522;24.470;2023-05-21T00:29:02;100174.16;;;12.39;100.00
57572;BME280;44459;43.522;24.470;2023-05-21T00:31:28;100170.63;;;12.36;100.00
57572;BME280;44459;43.522;24.470;2023-05-21T00:33:53;100175.06;;;12.34;100.00
57572;BME280;44459;43.522;24.470;2023-05-21T00:36:18;100172.44;;;12.35;100.00
57572;BME280;44459;43.522;24.470;2023-05-21T00:38:49;100174.19;;;12.35;100.00
57572;BME280;44459;43.522;24.470;2023-05-21T00:41:15;100161.84;;;12.31;100.00
57572;BME280;44459;43.522;24.470;2023-05-21T00:43:41;100160.97;;;12.32;100.00
57572;BME280;44459;43.522;24.470;2023-05-21T00:46:12;100156.53;;;12.29;100.00
57572;BME280;44459;43.522;24.470;2023-05-21T00:48:38;100168.91;;;12.32;100.00
57572;BME280;44459;43.522;24.470;2023-05-21T00:51:04;100157.44;;;12.31;100.00
57572;BME280;44459;43.522;24.470;2023-05-21T00:53:30;100155.66;;;12.26;100.00
57572;BME280;44459;43.522;24.470;2023-05-21T00:55:59;100154.78;;;12.27;100.00
57572;BME280;44459;43.522;24.470;2023-05-21T00:58:25;100148.59;;;12.23;100.00
57572;BME280;44459;43.522;24.470;2023-05-21T01:00:51;100149.47;;;12.25;100.00
57572;BME280;44459;43.522;24.470;2023-05-21T01:03:21;100150.38;;;12.24;100.00
57572;BME280;44459;43.522;24.470;2023-05-21T01:05:49;100149.47;;;12.27;100.00
57572;BME280;44459;43.522;24.470;2023-05-21T01:08:15;100153.03;;;12.20;100.00
57572;BME280;44459;43.522;24.470;2023-05-21T01:10:42;100146.88;;;12.15;100.00
57572;BME280;44459;43.522;24.470;2023-05-21T01:13:08;100149.53;;;12.15;100.00
57572;BME280;44459;43.522;24.470;2023-05-21T01:15:34;100152.16;;;12.18;100.00
57572;BME280;44459;43.522;24.470;2023-05-21T01:18:02;100145.09;;;12.15;100.00
57572;BME280;44459;43.522;24.470;2023-05-21T01:20:28;100150.38;;;12.15;100.00
57572;BME280;44459;43.522;24.470;2023-05-21T01:22:56;100151.28;;;12.13;100.00
57572;BME280;44459;43.522;24.470;2023-05-21T01:25:23;100149.50;;;12.11;100.00
57572;BME280;44459;43.522;24.470;2023-05-21T01:27:51;100160.97;;;12.14;100.00
57572;BME280;44459;43.522;24.470;2023-05-21T01:30:18;100148.63;;;12.16;100.00
57572;BME280;44459;43.522;24.470;2023-05-21T01:32:57;100144.22;;;12.13;100.00
57572;BME280;44459;43.522;24.470;2023-05-21T01:35:28;100141.56;;;12.13;100.00
57572;BME280;44459;43.522;24.470;2023-05-21T01:43:05;100145.09;;;12.24;100.00
57572;BME280;44459;43.522;24.470;2023-05-21T01:45:32;100138.91;;;12.27;100.00
57572;BME280;44459;43.522;24.470;2023-05-21T01:47:58;100138.88;;;12.30;100.00
57572;BME280;44459;43.522;24.470;2023-05-21T01:50:24;100140.66;;;12.31;100.00
57572;BME280;44459;43.522;24.470;2023-05-21T01:52:54;100139.75;;;12.36;100.00
57572;BME280;44459;43.522;24.470;2023-05-21T01:55:25;100129.16;;;12.36;100.00
57572;BME280;44459;43.522;24.470;2023-05-21T01:57:53;100126.50;;;12.41;100.00
57572;BME280;44459;43.522;24.470;2023-05-21T02:00:23;100126.50;;;12.44;100.00
57572;BME280;44459;43.522;24.470;2023-05-21T02:02:50;100123.84;;;12.48;100.00
57572;BME280;44459;43.522;24.470;2023-05-21T02:05:15;100088.56;;;12.36;100.00
57572;BME280;44459;43.522;24.470;2023-05-21T02:07:41;100115.88;;;12.50;100.00
57572;BME280;44459;43.522;24.470;2023-05-21T02:10:08;100123.81;;;12.51;100.00
57572;BME280;44459;43.522;24.470;2023-05-21T02:12:34;100122.06;;;12.52;100.00
57572;BME280;44459;43.522;24.470;2023-05-21T02:15:00;100123.81;;;12.50;100.00
57572;BME280;44459;43.522;24.470;2023-05-21T02:17:26;100126.47;;;12.51;100.00
57572;BME280;44459;43.522;24.470;2023-05-21T02:19:55;100133.53;;;12.55;100.00
57572;BME280;44459;43.522;24.470;2023-05-21T02:22:21;100137.91;;;12.58;100.00
57572;BME280;44459;43.522;24.470;2023-05-21T02:24:47;100139.69;;;12.59;100.00
57572;BME280;44459;43.522;24.470;2023-05-21T02:27:13;100134.38;;;12.57;100.00
57572;BME280;44459;43.522;24.470;2023-05-21T02:29:41;100126.47;;;12.56;100.00
57572;BME280;44459;43.522;24.470;2023-05-21T02:32:07;100129.09;;;12.57;100.00
57572;BME280;44459;43.522;24.470;2023-05-21T02:34:32;100139.69;;;12.62;100.00
57572;BME280;44459;43.522;24.470;2023-05-21T02:36:59;100137.88;;;12.67;100.00
57572;BME280;44459;43.522;24.470;2023-05-21T02:39:24;100140.53;;;12.73;100.00
57572;BME280;44459;43.522;24.470;2023-05-21T02:41:51;100148.44;;;12.76;100.00
57572;BME280;44459;43.522;24.470;2023-05-21T02:44:16;100134.34;;;12.73;100.00
57572;BME280;44459;43.522;24.470;2023-05-21T02:46:43;100144.91;;;12.80;100.00
57572;BME280;44459;43.522;24.470;2023-05-21T02:49:09;100152.84;;;12.80;100.00
57572;BME280;44459;43.522;24.470;2023-05-21T02:51:34;100147.53;;;12.82;100.00
57572;BME280;44459;43.522;24.470;2023-05-21T02:54:00;100141.31;;;12.84;100.00
57572;BME280;44459;43.522;24.470;2023-05-21T02:56:25;100146.63;;;12.89;100.00
57572;BME280;44459;43.522;24.470;2023-05-21T02:58:51;100138.69;;;12.90;100.00
57572;BME280;44459;43.522;24.470;2023-05-21T03:01:16;100147.50;;;12.89;100.00
57572;BME280;44459;43.522;24.470;2023-05-21T03:03:42;100149.25;;;12.92;100.00
57572;BME280;44459;43.522;24.470;2023-05-21T03:06:07;100146.59;;;12.96;100.00
57572;BME280;44459;43.522;24.470;2023-05-21T03:08:34;100150.09;;;13.00;100.00
57572;BME280;44459;43.522;24.470;2023-05-21T03:11:00;100152.75;;;13.01;100.00
57572;BME280;44459;43.522;24.470;2023-05-21T03:13:26;100154.47;;;13.05;100.00
57572;BME280;44459;43.522;24.470;2023-05-21T03:15:51;100148.28;;;13.06;100.00
57572;BME280;44459;43.522;24.470;2023-05-21T03:18:21;100143.00;;;13.11;100.00
57572;BME280;44459;43.522;24.470;2023-05-21T03:20:47;100146.56;;;13.12;100.00
57572;BME280;44459;43.522;24.470;2023-05-21T03:23:12;100142.97;;;13.16;100.00
57572;BME280;44459;43.522;24.470;2023-05-21T03:25:38;100145.63;;;13.19;100.00
57572;BME280;44459;43.522;24.470;2023-05-21T03:28:04;100146.47;;;13.21;100.00
57572;BME280;44459;43.522;24.470;2023-05-21T03:30:31;100139.41;;;13.21;100.00
57572;BME280;44459;43.522;24.470;2023-05-21T03:32:57;100143.75;;;13.30;100.00
57572;BME280;44459;43.522;24.470;2023-05-21T03:35:24;100140.25;;;13.28;100.00
57572;BME280;44459;43.522;24.470;2023-05-21T03:37:49;100141.09;;;13.34;100.00
57572;BME280;44459;43.522;24.470;2023-05-21T03:40:15;100138.41;;;13.42;100.00
57572;BME280;44459;43.522;24.470;2023-05-21T03:42:40;100139.28;;;13.42;100.00
57572;BME280;44459;43.522;24.470;2023-05-21T03:45:06;100144.59;;;13.41;100.00
57572;BME280;44459;43.522;24.470;2023-05-21T03:47:32;100147.19;;;13.48;100.00
57572;BME280;44459;43.522;24.470;2023-05-21T03:50:00;100148.94;;;13.51;100.00
57572;BME280;44459;43.522;24.470;2023-05-21T03:52:25;100143.59;;;13.55;100.00
57572;BME280;44459;43.522;24.470;2023-05-21T03:54:50;100150.63;;;13.61;100.00
57572;BME280;44459;43.522;24.470;2023-05-21T03:57:16;100137.31;;;13.66;100.00
57572;BME280;44459;43.522;24.470;2023-05-21T03:59:41;100131.97;;;13.73;100.00
57572;BME280;44459;43.522;24.470;2023-05-21T04:02:07;100139.78;;;13.88;100.00
57572;BME280;44459;43.522;24.470;2023-05-21T04:04:32;100142.38;;;13.97;100.00
57572;BME280;44459;43.522;24.470;2023-05-21T04:06:57;100141.41;;;14.04;100.00
57572;BME280;44459;43.522;24.470;2023-05-21T04:09:23;100138.63;;;14.18;100.00
57572;BME280;44459;43.522;24.470;2023-05-21T04:11:49;100148.25;;;14.27;100.00
57572;BME280;44459;43.522;24.470;2023-05-21T04:14:14;100145.56;;;14.31;100.00
57572;BME280;44459;43.522;24.470;2023-05-21T04:16:40;100148.22;;;14.36;100.00
57572;BME280;44459;43.522;24.470;2023-05-21T04:19:08;100146.31;;;14.44;100.00
57572;BME280;44459;43.522;24.470;2023-05-21T04:21:33;100146.25;;;14.53;100.00
57572;BME280;44459;43.522;24.470;2023-05-21T04:23:59;100143.56;;;14.56;100.00
57572;BME280;44459;43.522;24.470;2023-05-21T04:26:26;100146.03;;;14.71;100.00
57572;BME280;44459;43.522;24.470;2023-05-21T04:28:52;100143.16;;;14.86;100.00
57572;BME280;44459;43.522;24.470;2023-05-21T04:31:23;100145.69;;;14.97;100.00
57572;BME280;44459;43.522;24.470;2023-05-21T04:33:48;100141.06;;;15.11;100.00
57572;BME280;44459;43.522;24.470;2023-05-21T04:36:15;100149.75;;;15.25;100.00
57572;BME280;44459;43.522;24.470;2023-05-21T04:38:41;100159.16;;;15.49;100.00
57572;BME280;44459;43.522;24.470;2023-05-21T04:41:06;100140.28;;;15.66;100.00
57572;BME280;44459;43.522;24.470;2023-05-21T04:43:34;100147.19;;;15.77;100.00
57572;BME280;44459;43.522;24.470;2023-05-21T04:46:00;100139.03;;;15.89;100.00
57572;BME280;44459;43.522;24.470;2023-05-21T04:48:26;100146.97;;;15.91;100.00
57572;BME280;44459;43.522;24.470;2023-05-21T04:50:53;100140.69;;;15.93;100.00
57572;BME280;44459;43.522;24.470;2023-05-21T04:53:21;100139.88;;;15.90;100.00
57572;BME280;44459;43.522;24.470;2023-05-21T04:55:47;100146.00;;;15.96;100.00
57572;BME280;44459;43.522;24.470;2023-05-21T04:58:12;100149.38;;;16.04;100.00
57572;BME280;44459;43.522;24.470;2023-05-21T05:00:38;100154.56;;;16.14;100.00
57572;BME280;44459;43.522;24.470;2023-05-21T05:03:03;100150.00;;;16.20;100.00
57572;BME280;44459;43.522;24.470;2023-05-21T05:05:29;100151.66;;;16.27;100.00
57572;BME280;44459;43.522;24.470;2023-05-21T05:07:54;100153.19;;;16.39;100.00
57572;BME280;44459;43.522;24.470;2023-05-21T05:10:21;100150.25;;;16.52;100.00
57572;BME280;44459;43.522;24.470;2023-05-21T05:12:47;100159.78;;;16.69;100.00
57572;BME280;44459;43.522;24.470;2023-05-21T05:15:12;100162.44;;;16.67;100.00
57572;BME280;44459;43.522;24.470;2023-05-21T05:17:38;100158.81;;;16.71;100.00
57572;BME280;44459;43.522;24.470;2023-05-21T05:20:06;100167.56;;;16.78;100.00
57572;BME280;44459;43.522;24.470;2023-05-21T05:22:31;100164.09;;;16.74;100.00
57572;BME280;44459;43.522;24.470;2023-05-21T05:24:57;100160.59;;;16.72;100.00
57572;BME280;44459;43.522;24.470;2023-05-21T05:27:22;100162.38;;;16.70;100.00
57572;BME280;44459;43.522;24.470;2023-05-21T05:29:47;100167.84;;;16.64;100.00
57572;BME280;44459;43.522;24.470;2023-05-21T05:32:13;100170.16;;;16.82;100.00
57572;BME280;44459;43.522;24.470;2023-05-21T05:34:38;100175.34;;;16.90;100.00
57572;BME280;44459;43.522;24.470;2023-05-21T05:37:04;100165.19;;;17.07;100.00
57572;BME280;44459;43.522;24.470;2023-05-21T05:39:29;100161.28;;;17.22;100.00
57572;BME280;44459;43.522;24.470;2023-05-21T05:41:55;100161.03;;;17.34;100.00
57572;BME280;44459;43.522;24.470;2023-05-21T05:44:20;100166.22;;;17.40;100.00
57572;BME280;44459;43.522;24.470;2023-05-21T05:46:46;100155.13;;;17.59;100.00
57572;BME280;44459;43.522;24.470;2023-05-21T05:49:11;100153.69;;;17.82;100.00
57572;BME280;44459;43.522;24.470;2023-05-21T05:51:38;100164.81;;;18.00;100.00
57572;BME280;44459;43.522;24.470;2023-05-21T05:54:03;100166.16;;;18.17;100.00
57572;BME280;44459;43.522;24.470;2023-05-21T05:56:29;100156.00;;;18.29;100.00
57572;BME280;44459;43.522;24.470;2023-05-21T05:58:54;100162.75;;;18.44;100.00
57572;BME280;44459;43.522;24.470;2023-05-21T06:01:20;100167.03;;;18.51;100.00
57572;BME280;44459;43.522;24.470;2023-05-21T06:03:49;100152.75;;;18.52;100.00
57572;BME280;44459;43.522;24.470;2023-05-21T06:06:15;100159.03;;;18.51;99.42
57572;BME280;44459;43.522;24.470;2023-05-21T06:08:41;100158.63;;;18.65;100.00
57572;BME280;44459;43.522;24.470;2023-05-21T06:11:06;100151.16;;;18.77;100.00
57572;BME280;44459;43.522;24.470;2023-05-21T06:13:32;100149.22;;;18.82;97.72
57572;BME280;44459;43.522;24.470;2023-05-21T06:15:57;100151.78;;;18.87;97.82
57572;BME280;44459;43.522;24.470;2023-05-21T06:18:23;100152.19;;;19.02;97.71
57572;BME280;44459;43.522;24.470;2023-05-21T06:20:48;100147.31;;;19.17;96.33
57572;BME280;44459;43.522;24.470;2023-05-21T06:23:14;100144.06;;;19.35;95.18
57572;BME280;44459;43.522;24.470;2023-05-21T06:25:39;100141.91;;;19.75;95.53
57572;BME280;44459;43.522;24.470;2023-05-21T06:28:04;100135.41;;;19.56;88.88
57572;BME280;44459;43.522;24.470;2023-05-21T06:30:30;100143.38;;;19.85;87.17
57572;BME280;44459;43.522;24.470;2023-05-21T06:32:55;100136.09;;;20.15;86.96
57572;BME280;44459;43.522;24.470;2023-05-21T06:35:22;100131.00;;;20.34;81.34
57572;BME280;44459;43.522;24.470;2023-05-21T06:37:47;100141.41;;;20.43;81.00
57572;BME280;44459;43.522;24.470;2023-05-21T06:40:13;100135.69;;;20.52;79.66
57572;BME280;44459;43.522;24.470;2023-05-21T06:42:39;100134.16;;;20.70;78.67
57572;BME280;44459;43.522;24.470;2023-05-21T06:45:04;100127.69;;;20.98;79.55
57572;BME280;44459;43.522;24.470;2023-05-21T06:47:30;100122.94;;;21.06;73.44
57572;BME280;44459;43.522;24.470;2023-05-21T06:49:57;100125.66;;;21.05;71.05
57572;BME280;44459;43.522;24.470;2023-05-21T06:52:22;100125.16;;;21.19;73.88
57572;BME280;44459;43.522;24.470;2023-05-21T06:54:48;100122.00;;;21.31;75.16
57572;BME280;44459;43.522;24.470;2023-05-21T06:57:14;100129.84;;;21.35;74.23
57572;BME280;44459;43.522;24.470;2023-05-21T06:59:40;100124.69;;;21.52;75.51
57572;BME280;44459;43.522;24.470;2023-05-21T07:02:05;100122.13;;;21.71;71.54
57572;BME280;44459;43.522;24.470;2023-05-21T07:04:31;100125.31;;;21.81;73.42
57572;BME280;44459;43.522;24.470;2023-05-21T07:06:56;100121.91;;;21.99;70.03
57572;BME280;44459;43.522;24.470;2023-05-21T07:09:21;100115.00;;;21.70;70.64
57572;BME280;44459;43.522;24.470;2023-05-21T07:11:47;100113.13;;;21.94;69.07
57572;BME280;44459;43.522;24.470;2023-05-21T07:14:12;100111.09;;;22.21;67.67
57572;BME280;44459;43.522;24.470;2023-05-21T07:16:38;100107.66;;;22.37;70.24
57572;BME280;44459;43.522;24.470;2023-05-21T07:19:03;100111.50;;;22.52;68.09
57572;BME280;44459;43.522;24.470;2023-05-21T07:21:29;100108.59;;;22.56;68.88
57572;BME280;44459;43.522;24.470;2023-05-21T07:23:54;100118.97;;;22.45;65.38
57572;BME280;44459;43.522;24.470;2023-05-21T07:26:20;100115.88;;;22.54;67.30
57572;BME280;44459;43.522;24.470;2023-05-21T07:28:46;100116.69;;;22.77;69.69
57572;BME280;44459;43.522;24.470;2023-05-21T07:31:11;100102.59;;;22.70;66.34
57572;BME280;44459;43.522;24.470;2023-05-21T07:33:37;100099.66;;;22.95;69.25
57572;BME280;44459;43.522;24.470;2023-05-21T07:36:03;100113.13;;;22.95;66.75
57572;BME280;44459;43.522;24.470;2023-05-21T07:38:29;100107.09;;;22.90;70.19
57572;BME280;44459;43.522;24.470;2023-05-21T07:40:54;100101.84;;;23.05;66.11
57572;BME280;44459;43.522;24.470;2023-05-21T07:43:20;100110.88;;;23.23;69.27
57572;BME280;44459;43.522;24.470;2023-05-21T07:45:46;100107.75;;;23.14;65.47
57572;BME280;44459;43.522;24.470;2023-05-21T07:48:12;100102.50;;;22.92;64.12
57572;BME280;44459;43.522;24.470;2023-05-21T07:50:37;100112.88;;;23.01;67.66
57572;BME280;44459;43.522;24.470;2023-05-21T07:53:03;100113.81;;;23.00;64.14
57572;BME280;44459;43.522;24.470;2023-05-21T07:55:28;100114.03;;;23.14;64.60
57572;BME280;44459;43.522;24.470;2023-05-21T07:57:54;100107.16;;;22.88;66.65
57572;BME280;44459;43.522;24.470;2023-05-21T08:00:22;100111.56;;;22.71;65.29
57572;BME280;44459;43.522;24.470;2023-05-21T08:02:48;100106.78;;;22.77;64.25
57572;BME280;44459;43.522;24.470;2023-05-21T08:05:13;100110.75;;;23.08;67.90
57572;BME280;44459;43.522;24.470;2023-05-21T08:07:40;100111.75;;;23.24;64.55
57572;BME280;44459;43.522;24.470;2023-05-21T08:10:06;100102.28;;;23.15;61.72
57572;BME280;44459;43.522;24.470;2023-05-21T08:12:33;100101.59;;;23.12;63.67
57572;BME280;44459;43.522;24.470;2023-05-21T08:14:58;100100.06;;;23.25;65.34
57572;BME280;44459;43.522;24.470;2023-05-21T08:17:24;100090.38;;;23.39;66.31
57572;BME280;44459;43.522;24.470;2023-05-21T08:19:49;100079.00;;;23.51;63.05
57572;BME280;44459;43.522;24.470;2023-05-21T08:22:14;100088.63;;;23.74;65.70
57572;BME280;44459;43.522;24.470;2023-05-21T08:24:40;100086.94;;;23.90;61.71
57572;BME280;44459;43.522;24.470;2023-05-21T08:27:05;100082.47;;;23.89;61.61
57572;BME280;44459;43.522;24.470;2023-05-21T08:29:32;100077.63;;;23.79;60.98
57572;BME280;44459;43.522;24.470;2023-05-21T08:31:57;100081.38;;;23.93;63.33
57572;BME280;44459;43.522;24.470;2023-05-21T08:34:23;100080.19;;;23.99;63.90
57572;BME280;44459;43.522;24.470;2023-05-21T08:36:48;100081.53;;;23.90;60.15
57572;BME280;44459;43.522;24.470;2023-05-21T08:39:14;100082.31;;;23.75;63.13
57572;BME280;44459;43.522;24.470;2023-05-21T08:41:40;100078.50;;;23.43;62.48
57572;BME280;44459;43.522;24.470;2023-05-21T08:44:11;100075.53;;;23.49;64.10
57572;BME280;44459;43.522;24.470;2023-05-21T08:46:39;100079.41;;;23.61;64.46
57572;BME280;44459;43.522;24.470;2023-05-21T08:49:09;100075.25;;;23.73;62.65
57572;BME280;44459;43.522;24.470;2023-05-21T08:51:36;100086.38;;;23.84;60.46
57572;BME280;44459;43.522;24.470;2023-05-21T08:54:03;100084.09;;;23.58;61.60
57572;BME280;44459;43.522;24.470;2023-05-21T08:56:30;100085.63;;;23.26;62.58
57572;BME280;44459;43.522;24.470;2023-05-21T08:58:57;100083.22;;;23.38;62.39
57572;BME280;44459;43.522;24.470;2023-05-21T09:01:24;100082.56;;;23.52;62.78
57572;BME280;44459;43.522;24.470;2023-05-21T09:03:51;100077.31;;;23.30;63.57
57572;BME280;44459;43.522;24.470;2023-05-21T09:06:17;100075.19;;;23.37;64.46
57572;BME280;44459;43.522;24.470;2023-05-21T09:08:44;100075.19;;;23.37;62.28
57572;BME280;44459;43.522;24.470;2023-05-21T09:11:12;100079.06;;;23.50;63.70
57572;BME280;44459;43.522;24.470;2023-05-21T09:13:39;100074.16;;;23.77;64.44
57572;BME280;44459;43.522;24.470;2023-05-21T09:16:05;100076.31;;;23.87;61.80
57572;BME280;44459;43.522;24.470;2023-05-21T09:18:31;100080.31;;;23.79;57.83
57572;BME280;44459;43.522;24.470;2023-05-21T09:20:57;100077.84;;;23.74;59.71
57572;BME280;44459;43.522;24.470;2023-05-21T09:23:23;100074.53;;;23.69;59.42
57572;BME280;44459;43.522;24.470;2023-05-21T09:25:52;100074.78;;;23.99;58.28
57572;BME280;44459;43.522;24.470;2023-05-21T09:28:18;100079.72;;;24.08;58.91
57572;BME280;44459;43.522;24.470;2023-05-21T09:30:48;100079.50;;;24.13;58.88
57572;BME280;44459;43.522;24.470;2023-05-21T09:33:26;100077.97;;;24.07;56.43
57572;BME280;44459;43.522;24.470;2023-05-21T09:35:53;100085.75;;;24.30;58.20
57572;BME280;44459;43.522;24.470;2023-05-21T09:38:22;100089.81;;;24.39;57.08
57572;BME280;44459;43.522;24.470;2023-05-21T09:40:49;100078.31;;;24.35;61.09
57572;BME280;44459;43.522;24.470;2023-05-21T09:43:15;100090.03;;;24.51;59.92
57572;BME280;44459;43.522;24.470;2023-05-21T09:45:51;100084.09;;;24.45;57.88
57572;BME280;44459;43.522;24.470;2023-05-21T09:48:16;100081.38;;;24.45;57.90
57572;BME280;44459;43.522;24.470;2023-05-21T09:50:42;100082.06;;;24.33;57.30
57572;BME280;44459;43.522;24.470;2023-05-21T09:53:11;100068.78;;;24.45;52.87
57572;BME280;44459;43.522;24.470;2023-05-21T09:55:38;100063.34;;;24.78;54.55
57572;BME280;44459;43.522;24.470;2023-05-21T09:58:04;100074.66;;;24.86;54.48
57572;BME280;44459;43.522;24.470;2023-05-21T10:00:30;100071.78;;;24.89;53.94
57572;BME280;44459;43.522;24.470;2023-05-21T10:03:05;100076.72;;;24.81;54.07
57572;BME280;44459;43.522;24.470;2023-05-21T10:05:33;100079.03;;;24.72;53.97
57572;BME280;44459;43.522;24.470;2023-05-21T10:08:01;100085.34;;;24.55;55.69
57572;BME280;44459;43.522;24.470;2023-05-21T10:10:28;100078.91;;;24.58;54.45
57572;BME280;44459;43.522;24.470;2023-05-21T10:12:58;100081.25;;;24.81;54.04
57572;BME280;44459;43.522;24.470;2023-05-21T10:15:23;100077.28;;;25.03;54.83
57572;BME280;44459;43.522;24.470;2023-05-21T10:17:51;100070.88;;;25.22;53.26
57572;BME280;44459;43.522;24.470;2023-05-21T10:20:16;100075.41;;;25.06;53.46
57572;BME280;44459;43.522;24.470;2023-05-21T10:22:43;100067.78;;;24.96;52.09
57572;BME280;44459;43.522;24.470;2023-05-21T10:25:09;100064.94;;;24.82;53.71
57572;BME280;44459;43.522;24.470;2023-05-21T10:27:36;100069.56;;;24.80;54.57
57572;BME280;44459;43.522;24.470;2023-05-21T10:30:03;100067.50;;;24.85;51.15
57572;BME280;44459;43.522;24.470;2023-05-21T10:32:30;100063.34;;;24.78;53.30
57572;BME280;44459;43.522;24.470;2023-05-21T10:34:56;100064.03;;;24.66;54.45
57572;BME280;44459;43.522;24.470;2023-05-21T10:37:26;100070.31;;;24.67;56.66
57572;BME280;44459;43.522;24.470;2023-05-21T10:39:52;100068.28;;;24.37;56.09
57572;BME280;44459;43.522;24.470;2023-05-21T10:48:11;100055.22;;;24.13;53.96
57572;BME280;44459;43.522;24.470;2023-05-21T10:56:24;100056.34;;;24.59;51.94
57572;BME280;44459;43.522;24.470;2023-05-21T11:01:51;100045.88;;;24.85;51.57
57572;BME280;44459;43.522;24.470;2023-05-21T11:04:27;100040.59;;;24.84;50.22
57572;BME280;44459;43.522;24.470;2023-05-21T11:06:53;100045.75;;;24.88;52.26
57572;BME280;44459;43.522;24.470;2023-05-21T11:09:20;100032.00;;;24.76;52.74
57572;BME280;44459;43.522;24.470;2023-05-21T11:11:52;100033.72;;;24.94;52.75
57572;BME280;44459;43.522;24.470;2023-05-21T11:14:39;100042.44;;;24.99;51.09
57572;BME280;44459;43.522;24.470;2023-05-21T11:19:37;100033.47;;;25.30;51.09
57572;BME280;44459;43.522;24.470;2023-05-21T11:22:24;100036.44;;;25.57;50.40
57572;BME280;44459;43.522;24.470;2023-05-21T11:24:54;100039.09;;;25.41;49.49
57572;BME280;44459;43.522;24.470;2023-05-21T11:27:39;100034.69;;;25.56;49.45
57572;BME280;44459;43.522;24.470;2023-05-21T11:30:06;100033.81;;;25.55;50.53
57572;BME280;44459;43.522;24.470;2023-05-21T11:32:39;100031.09;;;25.39;49.34
57572;BME280;44459;43.522;24.470;2023-05-21T11:35:26;100021.28;;;25.23;48.09
57572;BME280;44459;43.522;24.470;2023-05-21T11:37:55;100014.44;;;25.31;49.36
57572;BME280;44459;43.522;24.470;2023-05-21T11:40:24;100022.22;;;25.53;53.17
57572;BME280;44459;43.522;24.470;2023-05-21T11:42:54;100022.09;;;25.70;49.32
57572;BME280;44459;43.522;24.470;2023-05-21T11:45:22;100010.50;;;25.98;50.48
57572;BME280;44459;43.522;24.470;2023-05-21T11:47:49;100005.13;;;26.12;49.15
57572;BME280;44459;43.522;24.470;2023-05-21T11:50:16;99991.22;;;26.18;51.06
57572;BME280;44459;43.522;24.470;2023-05-21T11:52:41;99992.00;;;26.48;48.46
57572;BME280;44459;43.522;24.470;2023-05-21T11:55:08;99982.91;;;26.78;48.46
57572;BME280;44459;43.522;24.470;2023-05-21T11:57:33;99983.59;;;26.81;46.37
57572;BME280;44459;43.522;24.470;2023-05-21T12:00:00;99976.41;;;27.09;47.17
57572;BME280;44459;43.522;24.470;2023-05-21T12:02:30;99969.22;;;27.08;45.90
57572;BME280;44459;43.522;24.470;2023-05-21T12:04:56;99970.25;;;26.92;48.13
57572;BME280;44459;43.522;24.470;2023-05-21T12:07:26;99964.38;;;26.86;43.32
57572;BME280;44459;43.522;24.470;2023-05-21T12:09:53;99966.56;;;26.79;43.58
57572;BME280;44459;43.522;24.470;2023-05-21T12:12:20;99961.88;;;26.40;41.92
57572;BME280;44459;43.522;24.470;2023-05-21T12:14:49;99960.88;;;26.41;44.54
57572;BME280;44459;43.522;24.470;2023-05-21T12:17:16;99958.47;;;26.23;42.38
57572;BME280;44459;43.522;24.470;2023-05-21T12:19:45;99944.81;;;26.10;43.31
57572;BME280;44459;43.522;24.470;2023-05-21T12:22:11;99951.91;;;26.27;44.95
57572;BME280;44459;43.522;24.470;2023-05-21T12:24:37;99934.69;;;26.28;43.72
57572;BME280;44459;43.522;24.470;2023-05-21T12:27:04;99943.59;;;26.30;45.18
57572;BME280;44459;43.522;24.470;2023-05-21T12:29:41;99924.38;;;26.34;42.47
57572;BME280;44459;43.522;24.470;2023-05-21T12:32:09;99929.78;;;26.34;41.57
57572;BME280;44459;43.522;24.470;2023-05-21T12:34:50;99931.78;;;26.17;42.16
57572;BME280;44459;43.522;24.470;2023-05-21T12:39:46;99927.25;;;26.17;44.25
57572;BME280;44459;43.522;24.470;2023-05-21T12:42:13;99926.38;;;26.17;44.88
57572;BME280;44459;43.522;24.470;2023-05-21T12:44:42;99925.56;;;26.15;45.21
57572;BME280;44459;43.522;24.470;2023-05-21T12:47:09;99917.06;;;25.92;47.18
57572;BME280;44459;43.522;24.470;2023-05-21T12:49:42;99913.16;;;25.68;44.87
57572;BME280;44459;43.522;24.470;2023-05-21T12:52:14;99928.28;;;25.57;46.27
57572;BME280;44459;43.522;24.470;2023-05-21T12:54:44;99912.00;;;25.42;45.71
57572;BME280;44459;43.522;24.470;2023-05-21T12:57:15;99910.69;;;25.34;47.35
57572;BME280;44459;43.522;24.470;2023-05-21T12:59:50;99908.59;;;25.39;45.93